Time;durP1;ratioP1;P1;durP2;ratioP2;P2;SDS_P1;SDS_P2;PMS_P1;PMS_P2;Temp;Humidity;BMP_temperature;BMP_pressure;BME280_temperature;BME280_humidity;BME280_pressure;Samples;Min_cycle;Max_cycle;Signal;HPM_P1;HPM_P2
2021/08/16 00:01:40;;;;;;;;;6.75;4.00;;;;;;;;5055537;28;45494;-88
2021/08/16 00:04:05;;;;;;;;;3.00;3.00;;;;;;;;5038792;28;45250;-88
2021/08/16 00:06:31;;;;;;;;;7.50;2.75;;;;;;;;5034496;28;48283;-88
2021/08/16 00:08:56;;;;;;;;;1.33;1.33;;;;;;;;5041803;28;45432;-88
2021/08/16 00:11:21;;;;;;;;;2.00;2.00;;;;;;;;5034333;28;45350;-88
2021/08/16 00:13:46;;;;;;;;;3.00;3.00;;;;;;;;5051680;28;46377;-88
2021/08/16 00:16:11;;;;;;;;;1.67;1.67;;;;;;;;5023837;28;47204;-88
2021/08/16 00:18:37;;;;;;;;;4.67;2.33;;;;;;;;5050776;28;45363;-88
2021/08/16 00:21:02;;;;;;;;;7.00;2.00;;;;;;;;5031964;28;45567;-88
2021/08/16 00:23:27;;;;;;;;;3.75;2.00;;;;;;;;5053857;28;45674;-89
2021/08/16 00:25:53;;;;;;;;;3.00;3.00;;;;;;;;5033329;28;47385;-88
2021/08/16 00:28:18;;;;;;;;;2.33;2.33;;;;;;;;5036012;28;45371;-88
2021/08/16 00:30:43;;;;;;;;;3.50;2.00;;;;;;;;5043732;28;45583;-88
2021/08/16 00:33:09;;;;;;;;;1.67;1.67;;;;;;;;5052185;28;45306;-88
2021/08/16 00:35:34;;;;;;;;;5.67;3.33;;;;;;;;5053418;28;47192;-88
2021/08/16 00:37:59;;;;;;;;;2.75;2.25;;;;;;;;5019742;28;45574;-88
2021/08/16 00:40:24;;;;;;;;;4.67;1.67;;;;;;;;5044313;28;45929;-88
2021/08/16 00:42:50;;;;;;;;;4.00;1.75;;;;;;;;5043781;28;45498;-87
2021/08/16 00:45:15;;;;;;;;;2.50;2.00;;;;;;;;5048965;28;47209;-88
2021/08/16 00:47:40;;;;;;;;;1.33;1.33;;;;;;;;5049876;28;45494;-88
2021/08/16 00:50:06;;;;;;;;;3.67;1.67;;;;;;;;5035702;28;45466;-88
2021/08/16 00:52:32;;;;;;;;;4.50;0.75;;;;;;;;5045115;28;45547;-88
2021/08/16 00:54:57;;;;;;;;;1.50;0.75;;;;;;;;5045785;28;45424;-88
2021/08/16 00:57:23;;;;;;;;;3.00;2.00;;;;;;;;5053448;28;45414;-88
2021/08/16 00:59:48;;;;;;;;;1.75;1.75;;;;;;;;5050062;28;45352;-88
2021/08/16 01:02:14;;;;;;;;;3.00;1.75;;;;;;;;5040250;28;45284;-88
2021/08/16 01:04:39;;;;;;;;;2.00;2.00;;;;;;;;5053337;28;46531;-88
2021/08/16 01:07:04;;;;;;;;;1.33;1.33;;;;;;;;5056957;28;45269;-87
2021/08/16 01:09:30;;;;;;;;;3.50;1.75;;;;;;;;5041131;28;45349;-88
2021/08/16 01:11:55;;;;;;;;;1.75;1.00;;;;;;;;5032641;28;45285;-88
2021/08/16 01:14:20;;;;;;;;;3.00;2.00;;;;;;;;5057586;28;45480;-88
2021/08/16 01:16:46;;;;;;;;;1.50;1.00;;;;;;;;5055482;28;45623;-88
2021/08/16 01:19:11;;;;;;;;;4.50;1.75;;;;;;;;5056145;28;45604;-88
2021/08/16 01:21:37;;;;;;;;;3.67;2.00;;;;;;;;5043924;28;45537;-88
2021/08/16 01:24:02;;;;;;;;;2.25;1.00;;;;;;;;5050492;28;46470;-88
2021/08/16 01:26:34;;;;;;;;;4.33;2.67;;;;;;;;5049677;28;45664;-88
2021/08/16 01:28:59;;;;;;;;;2.75;2.25;;;;;;;;5052555;28;45548;-88
2021/08/16 01:31:24;;;;;;;;;2.75;1.75;;;;;;;;5044251;28;45660;-88
2021/08/16 01:33:49;;;;;;;;;2.25;2.25;;;;;;;;5054844;28;47192;-88
2021/08/16 01:36:15;;;;;;;;;3.00;1.00;;;;;;;;5036937;28;45436;-87
2021/08/16 01:38:42;;;;;;;;;3.00;2.00;;;;;;;;5047312;28;45430;-88
2021/08/16 01:41:07;;;;;;;;;5.50;1.50;;;;;;;;5046217;28;45809;-88
2021/08/16 01:43:33;;;;;;;;;1.00;1.00;;;;;;;;5043747;28;46369;-88
2021/08/16 01:45:59;;;;;;;;;1.75;1.50;;;;;;;;5046607;28;45490;-88
2021/08/16 01:48:24;;;;;;;;;2.00;2.00;;;;;;;;5043573;28;48229;-88
2021/08/16 01:50:49;;;;;;;;;5.00;1.75;;;;;;;;5017903;28;45348;-88
2021/08/16 01:53:15;;;;;;;;;7.25;1.50;;;;;;;;5042885;28;46426;-88
2021/08/16 01:55:40;;;;;;;;;0.00;0.00;;;;;;;;5053386;28;45510;-88
2021/08/16 01:58:07;;;;;;;;;2.25;1.00;;;;;;;;5034935;28;45343;-87
2021/08/16 02:00:32;;;;;;;;;4.50;1.50;;;;;;;;5026894;28;45841;-88
2021/08/16 02:02:57;;;;;;;;;4.00;1.33;;;;;;;;5046308;28;45517;-88
2021/08/16 02:05:22;;;;;;;;;4.00;2.00;;;;;;;;5032118;28;45446;-88
2021/08/16 02:07:48;;;;;;;;;3.00;1.75;;;;;;;;5045276;27;45458;-88
2021/08/16 02:10:13;;;;;;;;;3.67;1.33;;;;;;;;5033416;28;45346;-88
2021/08/16 02:12:38;;;;;;;;;1.50;1.50;;;;;;;;5041120;28;46693;-88
2021/08/16 02:15:07;;;;;;;;;1.00;1.00;;;;;;;;5050619;27;45444;-88
2021/08/16 02:17:32;;;;;;;;;1.00;1.00;;;;;;;;5033473;28;45553;-88
2021/08/16 02:19:58;;;;;;;;;3.00;1.50;;;;;;;;5046042;28;45615;-88
2021/08/16 02:22:23;;;;;;;;;4.00;1.00;;;;;;;;5033991;28;45495;-88
2021/08/16 02:24:48;;;;;;;;;2.75;2.75;;;;;;;;5035248;28;45399;-88
2021/08/16 02:27:13;;;;;;;;;1.00;1.00;;;;;;;;5041815;28;45498;-88
2021/08/16 02:29:38;;;;;;;;;2.00;1.25;;;;;;;;5052120;28;45775;-88
2021/08/16 02:32:04;;;;;;;;;2.00;2.00;;;;;;;;5028559;28;48165;-88
2021/08/16 02:34:29;;;;;;;;;3.75;2.50;;;;;;;;5033643;28;45585;-88
2021/08/16 02:36:54;;;;;;;;;7.00;3.00;;;;;;;;5043404;28;45558;-87
2021/08/16 02:39:19;;;;;;;;;2.33;1.00;;;;;;;;5049920;28;45401;-88
2021/08/16 02:41:45;;;;;;;;;1.00;1.00;;;;;;;;5053386;28;46066;-88
2021/08/16 02:44:10;;;;;;;;;2.50;1.25;;;;;;;;5052573;28;45577;-88
2021/08/16 02:46:35;;;;;;;;;2.25;0.50;;;;;;;;5052629;28;45356;-87
2021/08/16 02:49:00;;;;;;;;;5.00;2.50;;;;;;;;5053259;28;45484;-87
2021/08/16 02:51:26;;;;;;;;;1.25;1.25;;;;;;;;5047052;28;45383;-88
2021/08/16 02:53:52;;;;;;;;;4.50;2.00;;;;;;;;5043526;28;45637;-88
2021/08/16 02:56:17;;;;;;;;;3.50;2.00;;;;;;;;5042920;28;45579;-87
2021/08/16 02:58:42;;;;;;;;;3.00;2.00;;;;;;;;5046146;28;45439;-88
2021/08/16 03:01:08;;;;;;;;;2.00;2.00;;;;;;;;5052999;28;46359;-87
2021/08/16 03:03:33;;;;;;;;;3.00;1.25;;;;;;;;5052010;28;45754;-87
2021/08/16 03:05:58;;;;;;;;;4.75;1.50;;;;;;;;5041273;28;45589;-87
2021/08/16 03:08:24;;;;;;;;;3.50;3.50;;;;;;;;5049409;28;45947;-88
2021/08/16 03:10:49;;;;;;;;;3.33;3.00;;;;;;;;5033030;28;46975;-87
2021/08/16 03:13:14;;;;;;;;;4.00;3.00;;;;;;;;5053292;28;45311;-88
2021/08/16 03:15:39;;;;;;;;;3.00;1.33;;;;;;;;5038057;28;45544;-87
2021/08/16 03:18:04;;;;;;;;;2.00;1.00;;;;;;;;5032490;28;45498;-88
2021/08/16 03:20:30;;;;;;;;;5.67;3.00;;;;;;;;5053406;28;46544;-88
2021/08/16 03:22:55;;;;;;;;;4.00;3.50;;;;;;;;5053281;28;45594;-88
2021/08/16 03:25:20;;;;;;;;;3.00;3.00;;;;;;;;5052047;28;45277;-87
2021/08/16 03:27:46;;;;;;;;;1.50;1.50;;;;;;;;5050131;28;45363;-88
2021/08/16 03:30:12;;;;;;;;;4.75;2.75;;;;;;;;5040419;28;45398;-88
2021/08/16 03:32:38;;;;;;;;;2.75;1.75;;;;;;;;5052818;28;45431;-88
2021/08/16 03:35:03;;;;;;;;;5.50;3.50;;;;;;;;5040259;28;45777;-87
2021/08/16 03:37:32;;;;;;;;;3.00;3.00;;;;;;;;5051753;28;52346;-88
2021/08/16 03:39:58;;;;;;;;;4.00;2.50;;;;;;;;5045099;28;46745;-88
2021/08/16 03:42:23;;;;;;;;;5.50;4.00;;;;;;;;5034986;28;45238;-88
2021/08/16 03:44:48;;;;;;;;;5.33;3.00;;;;;;;;5023612;28;46940;-87
2021/08/16 03:47:14;;;;;;;;;5.33;3.00;;;;;;;;5050394;28;45546;-87
2021/08/16 03:49:39;;;;;;;;;4.00;4.00;;;;;;;;5047859;28;45741;-87
2021/08/16 03:52:04;;;;;;;;;8.00;4.50;;;;;;;;5034109;28;45572;-88
2021/08/16 03:54:29;;;;;;;;;4.75;3.50;;;;;;;;5049882;28;45395;-87
2021/08/16 03:56:55;;;;;;;;;6.25;4.00;;;;;;;;5050910;28;45454;-88
2021/08/16 03:59:20;;;;;;;;;4.67;3.67;;;;;;;;5039013;28;46439;-87
2021/08/16 04:01:45;;;;;;;;;5.67;3.00;;;;;;;;5047116;28;45281;-87
2021/08/16 04:04:10;;;;;;;;;3.75;3.00;;;;;;;;5042283;28;46692;-88
2021/08/16 04:06:35;;;;;;;;;4.00;3.33;;;;;;;;5050860;28;45522;-87
2021/08/16 04:09:01;;;;;;;;;6.00;4.50;;;;;;;;5037002;28;47389;-88
2021/08/16 04:11:26;;;;;;;;;8.75;5.00;;;;;;;;5048657;28;45545;-88
2021/08/16 04:13:51;;;;;;;;;5.33;4.67;;;;;;;;5030750;28;45499;-88
2021/08/16 04:16:17;;;;;;;;;6.00;4.00;;;;;;;;5034455;28;45434;-87
2021/08/16 04:18:42;;;;;;;;;5.25;3.50;;;;;;;;5042924;28;46547;-87
2021/08/16 04:21:08;;;;;;;;;5.00;4.25;;;;;;;;5035768;28;45769;-87
2021/08/16 04:23:33;;;;;;;;;3.50;2.75;;;;;;;;5051709;28;45496;-87
2021/08/16 04:25:58;;;;;;;;;3.00;2.00;;;;;;;;5050234;28;45809;-87
2021/08/16 04:28:23;;;;;;;;;5.00;3.00;;;;;;;;5052589;28;46579;-88
2021/08/16 04:30:49;;;;;;;;;7.50;3.00;;;;;;;;5032456;28;45332;-86
2021/08/16 04:33:14;;;;;;;;;7.00;4.00;;;;;;;;5027471;28;54543;-86
2021/08/16 04:35:40;;;;;;;;;3.00;2.00;;;;;;;;5042472;28;45461;-87
2021/08/16 04:38:05;;;;;;;;;4.00;3.00;;;;;;;;5049359;28;47125;-87
2021/08/16 04:40:30;;;;;;;;;3.00;3.00;;;;;;;;5049947;28;45514;-88
2021/08/16 04:42:56;;;;;;;;;2.25;2.25;;;;;;;;5041771;28;45499;-87
2021/08/16 04:45:21;;;;;;;;;4.00;3.00;;;;;;;;5043355;28;45681;-88
2021/08/16 04:47:46;;;;;;;;;4.00;3.00;;;;;;;;5025333;28;48101;-87
2021/08/16 04:50:13;;;;;;;;;4.50;2.00;;;;;;;;5030172;28;45479;-88
2021/08/16 04:52:38;;;;;;;;;4.00;2.50;;;;;;;;5031685;28;45536;-88
2021/08/16 04:55:04;;;;;;;;;2.00;2.00;;;;;;;;5023844;28;45656;-87
2021/08/16 04:57:30;;;;;;;;;7.00;4.00;;;;;;;;5047920;28;45644;-87
2021/08/16 04:59:55;;;;;;;;;3.00;2.00;;;;;;;;5038449;28;48270;-88
2021/08/16 05:02:20;;;;;;;;;2.75;2.75;;;;;;;;5051282;28;45535;-89
2021/08/16 05:04:49;;;;;;;;;5.33;3.00;;;;;;;;5047982;28;45382;-87
2021/08/16 05:07:14;;;;;;;;;2.25;2.25;;;;;;;;5042875;28;45420;-87
2021/08/16 05:09:39;;;;;;;;;3.50;2.00;;;;;;;;5048962;28;47036;-87
2021/08/16 05:12:05;;;;;;;;;3.67;2.33;;;;;;;;5031427;28;45680;-88
2021/08/16 05:14:30;;;;;;;;;2.00;2.00;;;;;;;;5049495;28;45528;-87
2021/08/16 05:16:55;;;;;;;;;2.67;2.67;;;;;;;;5031830;28;47511;-87
2021/08/16 05:19:20;;;;;;;;;4.00;3.00;;;;;;;;5050199;28;45656;-87
2021/08/16 05:21:45;;;;;;;;;2.00;2.00;;;;;;;;5042063;28;45805;-87
2021/08/16 05:24:11;;;;;;;;;5.00;2.00;;;;;;;;5049331;28;45489;-87
2021/08/16 05:26:36;;;;;;;;;3.50;2.00;;;;;;;;5050577;28;46555;-87
2021/08/16 05:29:01;;;;;;;;;2.00;2.00;;;;;;;;5047008;28;45319;-87
2021/08/16 05:31:26;;;;;;;;;2.75;1.00;;;;;;;;5049191;28;45375;-87
2021/08/16 05:33:52;;;;;;;;;2.25;2.25;;;;;;;;5033576;28;45531;-87
2021/08/16 05:36:17;;;;;;;;;6.33;3.00;;;;;;;;5041421;28;45767;-87
2021/08/16 05:38:43;;;;;;;;;4.50;2.75;;;;;;;;5044882;28;45505;-87
2021/08/16 05:41:08;;;;;;;;;3.00;3.00;;;;;;;;5053310;28;45512;-87
2021/08/16 05:43:33;;;;;;;;;2.00;2.00;;;;;;;;5052499;28;45549;-87
2021/08/16 05:45:59;;;;;;;;;1.00;1.00;;;;;;;;5047221;28;46527;-87
2021/08/16 05:48:24;;;;;;;;;2.00;1.00;;;;;;;;5046274;28;45439;-87
2021/08/16 05:50:49;;;;;;;;;1.00;1.00;;;;;;;;5044412;28;45407;-88
2021/08/16 05:53:14;;;;;;;;;4.75;1.00;;;;;;;;5053012;28;45809;-87
2021/08/16 05:55:39;;;;;;;;;5.00;3.00;;;;;;;;5054112;28;47107;-87
2021/08/16 05:58:05;;;;;;;;;4.00;2.75;;;;;;;;5049594;28;45359;-88
2021/08/16 06:00:30;;;;;;;;;3.00;2.25;;;;;;;;5046716;28;52275;-87
2021/08/16 06:02:55;;;;;;;;;2.00;2.00;;;;;;;;5045288;28;45477;-87
2021/08/16 06:05:20;;;;;;;;;2.00;2.00;;;;;;;;5025880;28;46278;-88
2021/08/16 06:07:46;;;;;;;;;1.00;1.00;;;;;;;;5045189;28;45407;-87
2021/08/16 06:10:11;;;;;;;;;6.75;2.25;;;;;;;;5035366;28;45657;-86
2021/08/16 06:12:37;;;;;;;;;3.00;1.75;;;;;;;;5031091;28;45844;-87
2021/08/16 06:15:03;;;;;;;;;3.00;1.67;;;;;;;;5030234;28;47208;-87
2021/08/16 06:17:29;;;;;;;;;1.25;1.25;;;;;;;;5031973;28;45504;-87
2021/08/16 06:19:54;;;;;;;;;1.25;1.00;;;;;;;;5021371;28;45528;-87
2021/08/16 06:22:20;;;;;;;;;4.00;2.00;;;;;;;;5032168;28;45435;-87
2021/08/16 06:24:45;;;;;;;;;2.00;2.00;;;;;;;;5030566;28;47292;-88
2021/08/16 06:27:10;;;;;;;;;3.00;2.00;;;;;;;;5028762;28;45556;-87
2021/08/16 06:29:35;;;;;;;;;4.33;1.33;;;;;;;;5015213;28;46481;-87
2021/08/16 06:32:00;;;;;;;;;4.00;3.00;;;;;;;;5029052;28;45548;-87
2021/08/16 06:34:26;;;;;;;;;2.33;1.33;;;;;;;;5031312;28;46243;-87
2021/08/16 06:36:55;;;;;;;;;2.00;2.00;;;;;;;;5015361;28;45848;-87
2021/08/16 06:39:21;;;;;;;;;2.00;1.00;;;;;;;;5026537;28;46261;-87
2021/08/16 06:41:48;;;;;;;;;2.75;1.00;;;;;;;;5032969;28;45357;-87
2021/08/16 06:44:13;;;;;;;;;2.00;2.00;;;;;;;;5019299;28;46722;-87
2021/08/16 06:46:39;;;;;;;;;3.75;1.00;;;;;;;;5031620;28;45535;-87
2021/08/16 06:49:05;;;;;;;;;3.50;1.75;;;;;;;;5024355;28;45435;-87
2021/08/16 06:51:30;;;;;;;;;3.00;1.00;;;;;;;;5021923;28;45589;-87
2021/08/16 06:53:55;;;;;;;;;4.67;1.67;;;;;;;;5014913;28;47136;-87
2021/08/16 06:56:20;;;;;;;;;1.50;1.50;;;;;;;;5017347;28;45810;-88
2021/08/16 06:58:45;;;;;;;;;1.00;1.00;;;;;;;;5019124;28;45429;-87
2021/08/16 07:01:18;;;;;;;;;2.00;2.00;;;;;;;;5033521;28;45597;-87
2021/08/16 07:03:43;;;;;;;;;2.00;0.00;;;;;;;;5030732;28;46642;-87
2021/08/16 07:06:08;;;;;;;;;2.00;2.00;;;;;;;;5029620;28;45406;-87
2021/08/16 07:08:34;;;;;;;;;0.67;0.67;;;;;;;;5027005;28;45366;-87
2021/08/16 07:10:59;;;;;;;;;1.00;1.00;;;;;;;;5027651;28;45785;-88
2021/08/16 07:13:24;;;;;;;;;1.00;1.00;;;;;;;;5031224;28;46304;-87
2021/08/16 07:15:49;;;;;;;;;3.00;1.67;;;;;;;;5020515;28;45789;-87
2021/08/16 07:18:16;;;;;;;;;2.00;0.33;;;;;;;;5026630;28;45624;-87
2021/08/16 07:20:41;;;;;;;;;2.00;2.00;;;;;;;;5019088;28;45471;-87
2021/08/16 07:23:06;;;;;;;;;1.00;1.00;;;;;;;;5027781;28;48090;-87
2021/08/16 07:25:31;;;;;;;;;1.00;1.00;;;;;;;;5030179;28;45785;-88
2021/08/16 07:27:56;;;;;;;;;2.25;1.25;;;;;;;;5031330;28;45391;-87
2021/08/16 07:30:22;;;;;;;;;2.00;2.00;;;;;;;;5028555;28;45489;-88
2021/08/16 07:32:47;;;;;;;;;1.75;0.75;;;;;;;;5032231;28;45407;-87
2021/08/16 07:35:12;;;;;;;;;0.33;0.33;;;;;;;;5032146;28;45515;-88
2021/08/16 07:37:37;;;;;;;;;2.50;1.50;;;;;;;;5034722;28;45473;-87
2021/08/16 07:40:03;;;;;;;;;0.33;0.33;;;;;;;;5032717;28;45636;-87
2021/08/16 07:42:29;;;;;;;;;0.50;0.00;;;;;;;;5029691;28;48093;-87
2021/08/16 07:44:54;;;;;;;;;1.75;0.75;;;;;;;;5031241;28;45604;-87
2021/08/16 07:47:19;;;;;;;;;0.33;0.33;;;;;;;;5011174;28;45265;-88
2021/08/16 07:49:45;;;;;;;;;1.50;1.00;;;;;;;;5022090;28;45375;-87
2021/08/16 07:52:10;;;;;;;;;0.33;0.33;;;;;;;;5016395;28;46515;-87
2021/08/16 07:54:35;;;;;;;;;0.00;0.00;;;;;;;;5017479;28;45739;-87
2021/08/16 07:57:00;;;;;;;;;0.33;0.00;;;;;;;;5017874;28;45527;-87
2021/08/16 07:59:26;;;;;;;;;1.00;1.00;;;;;;;;5023068;28;45435;-88
2021/08/16 08:01:51;;;;;;;;;2.00;0.50;;;;;;;;5025822;28;47090;-87
2021/08/16 08:04:17;;;;;;;;;0.00;0.00;;;;;;;;5027188;28;45363;-88
2021/08/16 08:06:42;;;;;;;;;0.25;0.25;;;;;;;;5028496;28;45506;-88
2021/08/16 08:09:07;;;;;;;;;1.50;0.50;;;;;;;;5040007;28;45369;-87
2021/08/16 08:11:32;;;;;;;;;0.33;0.00;;;;;;;;5034610;28;47362;-88
2021/08/16 08:13:59;;;;;;;;;0.50;0.50;;;;;;;;5032375;28;45520;-87
2021/08/16 08:16:24;;;;;;;;;2.00;1.00;;;;;;;;5039807;28;45512;-88
2021/08/16 08:18:49;;;;;;;;;0.75;0.50;;;;;;;;5050768;28;45545;-88
2021/08/16 08:21:16;;;;;;;;;1.33;1.33;;;;;;;;5031071;28;47094;-88
2021/08/16 08:23:41;;;;;;;;;0.50;0.50;;;;;;;;5051564;28;45431;-87
2021/08/16 08:26:06;;;;;;;;;3.00;1.00;;;;;;;;5049454;28;45584;-88
2021/08/16 08:28:32;;;;;;;;;0.25;0.25;;;;;;;;5038523;28;45323;-88
2021/08/16 08:30:57;;;;;;;;;3.00;1.33;;;;;;;;5034372;28;45463;-88
2021/08/16 08:33:22;;;;;;;;;0.33;0.00;;;;;;;;5049791;28;45582;-89
2021/08/16 08:35:48;;;;;;;;;1.00;1.00;;;;;;;;5050719;28;45450;-87
2021/08/16 08:38:14;;;;;;;;;2.00;0.50;;;;;;;;5042347;28;45541;-88
2021/08/16 08:40:39;;;;;;;;;1.00;1.00;;;;;;;;5032347;28;45706;-87
2021/08/16 08:43:07;;;;;;;;;0.75;0.75;;;;;;;;5042116;28;45557;-88
2021/08/16 08:45:32;;;;;;;;;1.50;0.00;;;;;;;;5031424;28;45569;-89
2021/08/16 08:47:57;;;;;;;;;1.75;1.75;;;;;;;;5034162;28;45481;-88
2021/08/16 08:50:23;;;;;;;;;0.33;0.33;;;;;;;;5038463;28;46576;-88
2021/08/16 08:52:50;;;;;;;;;2.75;0.75;;;;;;;;5046068;28;45506;-88
2021/08/16 08:55:15;;;;;;;;;1.50;0.00;;;;;;;;5024866;28;45800;-87
2021/08/16 08:57:40;;;;;;;;;1.00;1.00;;;;;;;;5049206;28;45630;-88
2021/08/16 09:00:08;;;;;;;;;0.33;0.33;;;;;;;;5050438;28;45593;-89
2021/08/16 09:02:33;;;;;;;;;0.75;0.75;;;;;;;;5034071;28;45649;-89
2021/08/16 09:05:00;;;;;;;;;1.67;0.67;;;;;;;;5048102;28;45347;-88
2021/08/16 09:07:31;;;;;;;;;1.25;0.75;;;;;;;;5034051;28;45321;-88
2021/08/16 09:09:56;;;;;;;;;1.00;0.50;;;;;;;;5033575;28;47225;-88
2021/08/16 09:12:32;;;;;;;;;0.50;0.50;;;;;;;;5033145;28;45548;-88
2021/08/16 09:14:57;;;;;;;;;1.00;0.50;;;;;;;;5034228;28;45745;-88
2021/08/16 09:17:41;;;;;;;;;1.25;0.75;;;;;;;;5037782;28;45511;-87
2021/08/16 09:20:21;;;;;;;;;0.25;0.25;;;;;;;;5030470;28;46423;-88
2021/08/16 09:22:54;;;;;;;;;1.50;0.00;;;;;;;;5030401;28;45403;-88
2021/08/16 09:25:20;;;;;;;;;1.75;0.75;;;;;;;;5034907;28;45417;-88
2021/08/16 09:27:46;;;;;;;;;0.00;0.00;;;;;;;;5021473;28;45730;-88
2021/08/16 09:30:12;;;;;;;;;0.75;0.75;;;;;;;;5030550;28;47337;-88
2021/08/16 09:32:37;;;;;;;;;2.00;1.25;;;;;;;;5015170;28;45415;-87
2021/08/16 09:35:13;;;;;;;;;2.67;1.67;;;;;;;;5024305;28;45437;-88
2021/08/16 09:37:39;;;;;;;;;0.00;0.00;;;;;;;;5025481;28;45405;-88
2021/08/16 09:40:11;;;;;;;;;2.00;2.00;;;;;;;;5034959;28;47434;-88
2021/08/16 09:42:44;;;;;;;;;0.75;0.75;;;;;;;;5021848;28;45429;-88
2021/08/16 09:45:11;;;;;;;;;0.75;0.75;;;;;;;;5021267;28;45554;-88
2021/08/16 09:47:43;;;;;;;;;0.50;0.50;;;;;;;;5028763;28;45451;-88
2021/08/16 09:50:10;;;;;;;;;1.75;0.00;;;;;;;;5025989;28;48586;-88
2021/08/16 09:52:35;;;;;;;;;1.25;0.75;;;;;;;;5016144;28;45470;-88
2021/08/16 09:55:01;;;;;;;;;0.25;0.25;;;;;;;;5032990;28;45386;-88
2021/08/16 09:57:28;;;;;;;;;0.50;0.50;;;;;;;;5033204;28;45814;-88
2021/08/16 09:59:55;;;;;;;;;0.50;0.50;;;;;;;;5032769;28;46222;-88
2021/08/16 10:02:21;;;;;;;;;3.75;0.75;;;;;;;;5021202;28;45356;-88
2021/08/16 10:04:46;;;;;;;;;0.00;0.00;;;;;;;;5030313;28;45734;-89
2021/08/16 10:07:12;;;;;;;;;2.33;1.67;;;;;;;;5031717;28;45531;-88
2021/08/16 10:09:38;;;;;;;;;1.00;0.75;;;;;;;;5047088;28;45803;-88
2021/08/16 10:12:04;;;;;;;;;0.75;0.75;;;;;;;;5050533;28;45533;-88
2021/08/16 10:14:31;;;;;;;;;1.00;1.00;;;;;;;;5053255;28;45458;-88
2021/08/16 10:16:57;;;;;;;;;1.00;1.00;;;;;;;;5049119;28;45423;-88
2021/08/16 10:19:26;;;;;;;;;4.00;2.00;;;;;;;;5027958;28;47779;-89
2021/08/16 10:21:56;;;;;;;;;1.75;1.00;;;;;;;;5025062;28;45846;-87
2021/08/16 10:24:28;;;;;;;;;1.00;1.00;;;;;;;;5034357;28;45809;-88
2021/08/16 10:26:54;;;;;;;;;1.00;1.00;;;;;;;;5054357;28;45525;-89
2021/08/16 10:29:19;;;;;;;;;2.00;2.00;;;;;;;;5052927;28;46662;-87
2021/08/16 10:31:50;;;;;;;;;1.00;1.00;;;;;;;;5049218;28;45239;-88
2021/08/16 10:34:23;;;;;;;;;2.00;2.00;;;;;;;;5045501;28;45431;-88
2021/08/16 10:36:58;;;;;;;;;11.00;7.00;;;;;;;;5039743;28;45624;-88
2021/08/16 10:39:53;;;;;;;;;2.50;2.25;;;;;;;;5049791;28;54135;-89
2021/08/16 10:42:19;;;;;;;;;2.00;2.00;;;;;;;;4971273;28;45567;-89
2021/08/16 10:44:51;;;;;;;;;3.00;2.25;;;;;;;;4955992;28;45496;-89
2021/08/16 10:47:24;;;;;;;;;4.00;2.00;;;;;;;;4971430;28;45800;-89
2021/08/16 10:49:49;;;;;;;;;3.00;3.00;;;;;;;;4970783;28;46352;-88
2021/08/16 10:52:20;;;;;;;;;2.25;2.25;;;;;;;;4971583;28;45442;-89
2021/08/16 10:54:45;;;;;;;;;3.00;3.00;;;;;;;;4971483;28;45424;-89
2021/08/16 10:57:11;;;;;;;;;4.00;3.00;;;;;;;;4970475;28;45435;-89
2021/08/16 10:59:36;;;;;;;;;1.75;1.75;;;;;;;;4972220;28;45441;-89
2021/08/16 11:02:01;;;;;;;;;2.75;2.75;;;;;;;;4971529;28;45385;-89
2021/08/16 11:04:27;;;;;;;;;5.25;4.00;;;;;;;;4971546;28;45371;-89
2021/08/16 11:06:53;;;;;;;;;4.00;4.00;;;;;;;;4971970;28;45528;-91
2021/08/16 11:09:22;;;;;;;;;1.75;1.75;;;;;;;;4957502;28;45646;-89
2021/08/16 11:11:51;;;;;;;;;3.50;2.75;;;;;;;;4952740;28;45545;-90
2021/08/16 11:14:22;;;;;;;;;3.00;3.00;;;;;;;;4951257;28;45367;-90
2021/08/16 11:16:47;;;;;;;;;3.00;2.50;;;;;;;;4955141;28;45594;-89
2021/08/16 11:19:13;;;;;;;;;3.50;3.00;;;;;;;;5004960;28;45903;-90
2021/08/16 11:21:38;;;;;;;;;3.00;3.00;;;;;;;;5027635;28;45581;-89
2021/08/16 11:24:03;;;;;;;;;2.00;2.00;;;;;;;;5007115;28;45522;-89
2021/08/16 11:26:29;;;;;;;;;2.25;2.25;;;;;;;;5024870;28;45483;-89
2021/08/16 11:29:04;;;;;;;;;2.00;2.00;;;;;;;;5025329;28;45476;-90
2021/08/16 11:31:30;;;;;;;;;2.00;2.00;;;;;;;;5030853;28;45360;-89
2021/08/16 11:34:06;;;;;;;;;4.00;3.75;;;;;;;;5026199;28;45408;-87
2021/08/16 11:36:37;;;;;;;;;5.25;4.00;;;;;;;;5007178;28;45734;-89
2021/08/16 11:39:04;;;;;;;;;5.00;3.25;;;;;;;;5022188;28;47023;-87
2021/08/16 11:41:30;;;;;;;;;3.00;3.00;;;;;;;;5031886;28;45456;-88
2021/08/16 11:43:55;;;;;;;;;4.00;3.75;;;;;;;;5017619;28;45713;-89
2021/08/16 11:46:21;;;;;;;;;4.75;4.00;;;;;;;;5003566;28;45515;-88
2021/08/16 11:48:50;;;;;;;;;4.00;4.00;;;;;;;;5021702;28;45534;-88
2021/08/16 11:51:15;;;;;;;;;5.25;4.00;;;;;;;;5025981;28;45586;-88
2021/08/16 11:53:45;;;;;;;;;4.00;4.00;;;;;;;;5023140;28;45552;-88
2021/08/16 11:56:10;;;;;;;;;6.25;4.25;;;;;;;;5020725;28;45369;-88
2021/08/16 11:58:36;;;;;;;;;6.00;5.25;;;;;;;;5024560;28;45608;-89
2021/08/16 12:01:02;;;;;;;;;7.50;7.00;;;;;;;;5029096;28;45530;-88
2021/08/16 12:03:28;;;;;;;;;7.00;5.50;;;;;;;;5026507;28;48112;-88
2021/08/16 12:05:53;;;;;;;;;5.75;5.75;;;;;;;;5011896;28;45259;-88
2021/08/16 12:08:21;;;;;;;;;9.25;7.50;;;;;;;;5024347;28;46091;-87
2021/08/16 12:10:46;;;;;;;;;6.00;5.25;;;;;;;;5037595;28;45526;-88
2021/08/16 12:13:12;;;;;;;;;7.50;5.75;;;;;;;;5038983;28;45533;-88
2021/08/16 12:15:42;;;;;;;;;9.75;6.75;;;;;;;;5037673;28;45810;-88
2021/08/16 12:18:07;;;;;;;;;8.50;8.00;;;;;;;;5044242;28;47500;-88
2021/08/16 12:20:40;;;;;;;;;10.25;7.50;;;;;;;;5052524;28;45378;-89
2021/08/16 12:23:06;;;;;;;;;7.25;7.25;;;;;;;;5051208;28;45487;-89
2021/08/16 12:25:31;;;;;;;;;12.00;10.00;;;;;;;;5050845;28;45589;-89
2021/08/16 12:27:57;;;;;;;;;10.50;9.00;;;;;;;;5031929;28;45651;-88
2021/08/16 12:30:22;;;;;;;;;9.00;7.00;;;;;;;;5032968;28;45290;-89
2021/08/16 12:32:48;;;;;;;;;9.50;8.25;;;;;;;;5043115;28;45436;-89
2021/08/16 12:35:14;;;;;;;;;11.25;9.25;;;;;;;;5050976;28;45509;-88
2021/08/16 12:37:39;;;;;;;;;9.50;9.50;;;;;;;;5049816;27;45546;-89
2021/08/16 12:40:12;;;;;;;;;13.75;10.00;;;;;;;;5034254;28;45332;-88
2021/08/16 12:42:37;;;;;;;;;13.25;10.00;;;;;;;;5052252;28;45530;-88
2021/08/16 12:45:06;;;;;;;;;12.25;8.75;;;;;;;;5055705;28;45544;-89
2021/08/16 12:47:32;;;;;;;;;14.00;13.00;;;;;;;;5028382;28;48301;-88
2021/08/16 12:50:01;;;;;;;;;13.00;12.00;;;;;;;;5042605;28;45633;-88
2021/08/16 12:52:27;;;;;;;;;17.00;14.00;;;;;;;;5055052;28;45393;-88
2021/08/16 12:54:52;;;;;;;;;15.75;12.25;;;;;;;;5043761;28;45337;-88
2021/08/16 12:57:18;;;;;;;;;16.00;14.67;;;;;;;;5042591;28;46161;-87
2021/08/16 12:59:43;;;;;;;;;16.33;13.67;;;;;;;;5058063;28;45314;-88
2021/08/16 13:02:08;;;;;;;;;15.75;14.75;;;;;;;;5048775;28;45488;-88
2021/08/16 13:04:33;;;;;;;;;20.67;16.00;;;;;;;;5047578;28;45288;-89
2021/08/16 13:06:59;;;;;;;;;23.75;17.00;;;;;;;;5036464;28;47877;-88
2021/08/16 13:09:24;;;;;;;;;21.50;17.00;;;;;;;;5035341;28;45729;-88
2021/08/16 13:11:49;;;;;;;;;24.50;19.75;;;;;;;;5055236;28;45272;-89
2021/08/16 13:14:15;;;;;;;;;26.00;18.75;;;;;;;;5052562;28;45602;-87
2021/08/16 13:16:40;;;;;;;;;24.50;18.75;;;;;;;;5055108;28;46460;-88
2021/08/16 13:19:06;;;;;;;;;26.25;20.25;;;;;;;;5044396;28;45455;-88
2021/08/16 13:21:31;;;;;;;;;25.50;19.25;;;;;;;;5041000;28;45458;-88
2021/08/16 13:23:56;;;;;;;;;24.00;21.33;;;;;;;;5054142;28;45454;-88
2021/08/16 13:26:21;;;;;;;;;27.00;22.00;;;;;;;;5051819;28;46483;-88
2021/08/16 13:28:46;;;;;;;;;27.33;21.33;;;;;;;;5050400;28;45482;-88
2021/08/16 13:31:12;;;;;;;;;21.75;20.25;;;;;;;;5053399;27;45455;-88
2021/08/16 13:33:37;;;;;;;;;25.00;19.00;;;;;;;;5033362;28;45589;-88
2021/08/16 13:36:03;;;;;;;;;26.33;22.67;;;;;;;;5021627;28;47083;-88
2021/08/16 13:38:28;;;;;;;;;30.00;24.25;;;;;;;;5047365;28;45453;-88
2021/08/16 13:40:53;;;;;;;;;25.67;24.67;;;;;;;;5047823;28;45450;-88
2021/08/16 13:43:19;;;;;;;;;29.50;22.00;;;;;;;;5054631;28;44929;-89
2021/08/16 13:45:44;;;;;;;;;22.50;17.25;;;;;;;;5030343;28;47380;-88
2021/08/16 13:48:09;;;;;;;;;27.33;23.00;;;;;;;;5047534;28;45575;-88
2021/08/16 13:50:35;;;;;;;;;26.25;21.00;;;;;;;;5054774;28;45470;-88
2021/08/16 13:53:00;;;;;;;;;29.25;26.25;;;;;;;;5039508;28;45507;-88
2021/08/16 13:55:25;;;;;;;;;29.50;26.00;;;;;;;;5032446;28;48426;-87
2021/08/16 13:57:50;;;;;;;;;28.00;23.33;;;;;;;;5047312;28;45608;-88
2021/08/16 14:00:16;;;;;;;;;30.25;23.50;;;;;;;;5046090;28;45643;-87
2021/08/16 14:02:41;;;;;;;;;31.50;25.00;;;;;;;;5054895;28;45446;-88
2021/08/16 14:05:07;;;;;;;;;28.00;22.75;;;;;;;;5050177;28;46337;-88
2021/08/16 14:07:32;;;;;;;;;29.75;21.50;;;;;;;;5044693;28;45548;-88
2021/08/16 14:09:57;;;;;;;;;23.50;22.25;;;;;;;;5050521;28;45648;-88
2021/08/16 14:12:23;;;;;;;;;27.00;24.00;;;;;;;;5034425;28;45529;-87
2021/08/16 14:14:48;;;;;;;;;25.00;22.25;;;;;;;;5035990;28;48357;-88
2021/08/16 14:17:13;;;;;;;;;22.75;22.75;;;;;;;;5035472;28;50981;-88
2021/08/16 14:19:39;;;;;;;;;28.25;21.25;;;;;;;;5045771;28;45345;-88
2021/08/16 14:22:05;;;;;;;;;26.50;20.50;;;;;;;;5052978;28;45331;-88
2021/08/16 14:24:31;;;;;;;;;35.00;23.75;;;;;;;;5058878;27;45534;-88
2021/08/16 14:26:56;;;;;;;;;31.25;24.50;;;;;;;;5053955;28;45593;-87
2021/08/16 14:29:21;;;;;;;;;23.00;22.00;;;;;;;;5051053;28;45347;-88
2021/08/16 14:31:46;;;;;;;;;28.75;23.50;;;;;;;;5052001;28;45569;-88